createdAt,value
2022-11-07T00:00:36.150Z,3.20
2022-11-07T00:01:37.563Z,2.73
2022-11-07T00:02:39.392Z,3.27
2022-11-07T00:03:41.157Z,3.40
2022-11-07T00:04:42.634Z,3.50
2022-11-07T00:05:44.081Z,3.60
2022-11-07T00:06:46.472Z,3.30
2022-11-07T00:07:48.222Z,3.70
2022-11-07T00:08:51.209Z,3.50
2022-11-07T00:09:52.758Z,3.87
2022-11-07T00:10:54.999Z,3.90
2022-11-07T00:11:56.985Z,3.57
2022-11-07T00:12:58.367Z,3.20
2022-11-07T00:13:59.796Z,3.00
2022-11-07T00:15:01.954Z,3.80
2022-11-07T00:16:09.053Z,3.37
2022-11-07T00:17:10.434Z,3.77
2022-11-07T00:18:11.811Z,3.83
2022-11-07T00:19:15.429Z,3.60
2022-11-07T00:20:16.908Z,3.37
2022-11-07T00:21:18.336Z,3.27
2022-11-07T00:22:19.742Z,3.67
2022-11-07T00:23:21.151Z,2.87
2022-11-07T00:24:22.556Z,2.87
2022-11-07T00:25:24.161Z,2.60
2022-11-07T00:26:25.623Z,2.80
2022-11-07T00:27:27.163Z,2.60
2022-11-07T00:28:28.706Z,2.30
2022-11-07T00:29:30.077Z,2.10
2022-11-07T00:30:31.530Z,2.10
2022-11-07T00:31:33.243Z,1.97
2022-11-07T00:32:34.710Z,2.00
2022-11-07T00:33:36.560Z,1.70
2022-11-07T00:34:38.247Z,1.80
2022-11-07T00:35:42.858Z,1.70
2022-11-07T00:36:44.477Z,1.70
2022-11-07T00:37:46.199Z,1.90
2022-11-07T00:38:48.209Z,2.00
2022-11-07T00:39:49.569Z,2.00
2022-11-07T00:40:59.099Z,2.10
2022-11-07T00:42:00.689Z,1.83
2022-11-07T00:43:02.609Z,1.80
2022-11-07T00:44:04.139Z,1.77
2022-11-07T00:45:07.161Z,2.00
2022-11-07T00:46:09.768Z,1.77
2022-11-07T00:47:11.136Z,1.90
2022-11-07T00:48:12.524Z,1.83
2022-11-07T00:49:13.930Z,2.17
2022-11-07T00:50:15.367Z,2.03
2022-11-07T00:51:25.686Z,1.90
2022-11-07T00:52:27.115Z,2.10
2022-11-07T00:53:28.495Z,2.00
2022-11-07T00:54:29.925Z,1.90
2022-11-07T00:55:33.597Z,1.90
2022-11-07T00:56:35.045Z,2.50
2022-11-07T00:57:36.704Z,2.00
2022-11-07T00:58:38.648Z,1.97
2022-11-07T00:59:40.040Z,1.93
2022-11-07T01:00:42.176Z,2.10
2022-11-07T01:01:43.752Z,2.40
2022-11-07T01:03:05.349Z,2.40
2022-11-07T01:04:25.854Z,2.50
2022-11-07T01:05:27.239Z,3.17
2022-11-07T01:06:30.884Z,3.03
2022-11-07T01:07:33.747Z,3.20
2022-11-07T01:08:35.439Z,3.13
2022-11-07T01:09:37.065Z,2.60
2022-11-07T01:10:41.535Z,3.27
2022-11-07T01:11:43.983Z,3.83
2022-11-07T01:12:45.398Z,3.90
2022-11-07T01:13:46.804Z,4.50
2022-11-07T01:14:48.235Z,3.80
2022-11-07T01:15:50.547Z,4.07
2022-11-07T01:16:52.017Z,3.80
2022-11-07T01:17:53.411Z,3.40
2022-11-07T01:18:55.230Z,3.97
2022-11-07T01:19:56.673Z,4.13
2022-11-07T01:20:58.089Z,4.03
2022-11-07T01:21:59.490Z,4.10
2022-11-07T01:23:00.875Z,4.17
2022-11-07T01:24:03.963Z,4.80
2022-11-07T01:25:05.883Z,4.20
2022-11-07T01:26:09.443Z,4.30
2022-11-07T01:27:11.053Z,4.77
2022-11-07T01:28:12.456Z,4.40
2022-11-07T01:29:15.256Z,5.30
2022-11-07T01:30:16.696Z,4.53
2022-11-07T01:31:19.132Z,3.93
2022-11-07T01:32:20.672Z,4.40
2022-11-07T01:33:22.349Z,4.37
2022-11-07T01:34:23.860Z,4.87
2022-11-07T01:35:25.665Z,4.97
2022-11-07T01:36:27.878Z,4.97
2022-11-07T01:37:29.578Z,5.23
2022-11-07T01:38:31.247Z,4.57
2022-11-07T01:39:32.672Z,5.13
2022-11-07T01:40:54.751Z,5.13
2022-11-07T01:41:56.358Z,5.53
2022-11-07T01:42:57.773Z,5.83
2022-11-07T01:44:06.989Z,5.80
2022-11-07T01:45:20.439Z,6.20
2022-11-07T01:46:42.934Z,5.60
2022-11-07T01:47:44.408Z,5.80
2022-11-07T01:48:57.987Z,6.47
2022-11-07T01:50:00.699Z,5.33
2022-11-07T01:51:02.563Z,5.20
2022-11-07T01:52:13.187Z,5.10
2022-11-07T01:53:15.275Z,4.77
2022-11-07T01:54:20.255Z,4.30
2022-11-07T01:55:25.811Z,4.93
2022-11-07T01:56:29.366Z,4.20
2022-11-07T01:57:46.979Z,3.23
2022-11-07T01:58:48.654Z,2.80
2022-11-07T01:59:52.886Z,3.13
2022-11-07T02:00:54.305Z,3.40
2022-11-07T02:01:56.289Z,3.93
2022-11-07T02:03:02.447Z,4.07
2022-11-07T02:04:04.592Z,3.83
2022-11-07T02:05:08.287Z,4.40
2022-11-07T02:06:19.801Z,4.60
2022-11-07T02:07:23.307Z,4.57
2022-11-07T02:08:25.817Z,5.37
2022-11-07T02:09:27.335Z,4.77
2022-11-07T02:10:29.271Z,4.60
2022-11-07T02:11:31.191Z,4.40
2022-11-07T02:12:32.953Z,4.67
2022-11-07T02:13:34.540Z,3.73
2022-11-07T02:14:35.957Z,3.77
2022-11-07T02:15:37.476Z,3.63
2022-11-07T02:16:38.859Z,3.17
2022-11-07T02:17:40.750Z,3.20
2022-11-07T02:18:45.069Z,3.17
2022-11-07T02:19:51.414Z,3.03
2022-11-07T02:20:53.623Z,3.20
2022-11-07T02:22:26.136Z,3.10
2022-11-07T02:23:47.294Z,3.80
2022-11-07T02:24:53.763Z,2.93
2022-11-07T02:25:55.428Z,2.53
2022-11-07T02:26:58.456Z,2.93
2022-11-07T02:28:03.420Z,2.97
2022-11-07T02:29:08.872Z,2.93
2022-11-07T02:30:19.871Z,4.70
2022-11-07T02:31:22.067Z,3.37
2022-11-07T02:32:23.466Z,2.63
2022-11-07T02:33:24.860Z,2.40
2022-11-07T02:34:26.292Z,2.53
2022-11-07T02:35:45.664Z,2.43
2022-11-07T02:36:47.359Z,2.33
2022-11-07T02:37:49.108Z,3.00
2022-11-07T02:38:58.614Z,2.83
2022-11-07T02:40:06.701Z,2.57
2022-11-07T02:41:15.795Z,2.60
2022-11-07T02:42:17.557Z,2.60
2022-11-07T02:43:23.203Z,2.47
2022-11-07T02:44:25.230Z,2.73
2022-11-07T02:45:46.298Z,2.70
2022-11-07T02:46:47.953Z,2.70
2022-11-07T02:47:49.884Z,2.60
2022-11-07T02:48:55.515Z,2.30
2022-11-07T02:49:56.927Z,2.60
2022-11-07T02:50:58.672Z,3.03
2022-11-07T02:52:00.404Z,2.80
2022-11-07T02:53:01.866Z,2.60
2022-11-07T02:54:03.651Z,2.90
2022-11-07T02:55:06.542Z,2.77
2022-11-07T02:56:08.826Z,2.50
2022-11-07T02:57:10.473Z,2.57
2022-11-07T02:58:11.956Z,2.70
2022-11-07T02:59:13.344Z,2.17
2022-11-07T03:00:15.444Z,2.70
2022-11-07T03:01:17.017Z,2.80
2022-11-07T03:02:18.749Z,2.30
2022-11-07T03:03:20.295Z,2.40
2022-11-07T03:04:24.011Z,2.60
2022-11-07T03:05:25.782Z,2.80
2022-11-07T03:06:27.238Z,3.30
2022-11-07T03:07:28.680Z,3.00
2022-11-07T03:08:30.157Z,3.27
2022-11-07T03:09:31.558Z,3.40
2022-11-07T03:10:32.997Z,2.97
2022-11-07T03:11:34.415Z,3.00
2022-11-07T03:12:36.154Z,2.73
2022-11-07T03:13:38.035Z,2.97
2022-11-07T03:14:39.541Z,2.93
2022-11-07T03:15:41.031Z,2.90
2022-11-07T03:16:42.443Z,2.67
2022-11-07T03:17:43.965Z,2.30
2022-11-07T03:18:45.414Z,2.50
2022-11-07T03:19:46.846Z,3.43
2022-11-07T03:20:48.410Z,2.30
2022-11-07T03:21:51.008Z,2.63
2022-11-07T03:22:52.623Z,2.50
2022-11-07T03:23:54.023Z,2.50
2022-11-07T03:24:55.444Z,2.43
2022-11-07T03:25:57.194Z,2.10
2022-11-07T03:26:59.169Z,2.30
2022-11-07T03:28:00.869Z,2.50
2022-11-07T03:29:02.322Z,2.60
2022-11-07T03:30:03.975Z,2.87
2022-11-07T03:31:05.803Z,2.47
2022-11-07T03:32:07.563Z,2.20
2022-11-07T03:33:09.684Z,2.57
2022-11-07T03:34:11.345Z,2.50
2022-11-07T03:35:13.319Z,2.40
2022-11-07T03:36:14.880Z,2.50
2022-11-07T03:37:16.610Z,2.40
2022-11-07T03:38:18.002Z,3.27
2022-11-07T03:39:24.638Z,2.77
2022-11-07T03:40:27.503Z,2.83
2022-11-07T03:41:29.168Z,3.20
2022-11-07T03:42:30.684Z,2.93
2022-11-07T03:43:32.284Z,3.60
2022-11-07T03:44:33.717Z,3.00
2022-11-07T03:45:35.133Z,3.50
2022-11-07T03:46:36.519Z,3.00
2022-11-07T03:47:39.515Z,3.30
2022-11-07T03:48:41.343Z,3.50
2022-11-07T03:49:42.793Z,2.93
2022-11-07T03:50:44.164Z,3.83
2022-11-07T03:51:45.820Z,2.97
2022-11-07T03:52:48.443Z,2.83
2022-11-07T03:53:50.203Z,3.30
2022-11-07T03:54:51.631Z,2.80
2022-11-07T03:55:55.254Z,2.87
2022-11-07T03:56:57.079Z,2.97
2022-11-07T03:57:58.463Z,2.83
2022-11-07T03:59:00.077Z,2.37
2022-11-07T04:00:02.061Z,2.50
2022-11-07T04:01:13.467Z,2.60
2022-11-07T04:02:15.025Z,3.00
2022-11-07T04:03:17.076Z,3.00
2022-11-07T04:04:18.791Z,2.40
2022-11-07T04:05:20.283Z,2.40
2022-11-07T04:06:22.902Z,2.17
2022-11-07T04:07:24.337Z,2.50
2022-11-07T04:08:25.958Z,2.60
2022-11-07T04:09:27.358Z,2.80
2022-11-07T04:10:28.754Z,2.23
2022-11-07T04:11:48.849Z,2.60
2022-11-07T04:13:09.053Z,2.90
2022-11-07T04:14:29.294Z,2.73
2022-11-07T04:15:49.586Z,2.67
2022-11-07T04:17:10.012Z,2.20
2022-11-07T04:18:11.433Z,2.23
2022-11-07T04:19:12.920Z,2.53
2022-11-07T04:20:14.839Z,2.60
2022-11-07T04:21:16.266Z,2.70
2022-11-07T04:22:18.674Z,2.50
2022-11-07T04:23:20.474Z,2.63
2022-11-07T04:24:21.883Z,2.27
2022-11-07T04:25:43.336Z,2.20
2022-11-07T04:27:03.424Z,2.27
2022-11-07T04:28:05.411Z,2.33
2022-11-07T04:29:06.795Z,2.53
2022-11-07T04:30:26.854Z,2.27
2022-11-07T04:31:28.340Z,2.33
2022-11-07T04:32:29.759Z,2.40
2022-11-07T04:33:31.307Z,2.20
2022-11-07T04:34:32.816Z,2.40
2022-11-07T04:35:34.610Z,2.20
2022-11-07T04:36:36.237Z,2.30
2022-11-07T04:37:37.787Z,1.93
2022-11-07T04:38:39.188Z,2.10
2022-11-07T04:39:40.663Z,2.60
2022-11-07T04:40:42.487Z,2.83
2022-11-07T04:41:43.858Z,2.30
2022-11-07T04:42:46.498Z,2.57
2022-11-07T04:43:48.472Z,2.40
2022-11-07T04:44:50.229Z,2.13
2022-11-07T04:45:52.218Z,2.10
2022-11-07T04:46:53.815Z,2.17
2022-11-07T04:47:55.268Z,2.20
2022-11-07T04:48:56.618Z,2.40
2022-11-07T04:49:58.098Z,2.70
2022-11-07T04:50:59.499Z,2.30
2022-11-07T04:52:00.945Z,2.20
2022-11-07T04:53:02.340Z,2.33
2022-11-07T04:54:03.799Z,2.63
2022-11-07T04:55:07.692Z,2.20
2022-11-07T04:56:09.107Z,2.27
2022-11-07T04:57:10.446Z,2.50
2022-11-07T04:58:11.936Z,2.60
2022-11-07T04:59:13.294Z,2.87
2022-11-07T05:00:15.725Z,2.57
2022-11-07T05:01:18.306Z,2.57
2022-11-07T05:02:22.712Z,2.43
2022-11-07T05:03:24.439Z,2.80
2022-11-07T05:04:26.500Z,3.23
2022-11-07T05:05:28.000Z,2.20
2022-11-07T05:06:31.980Z,2.60
2022-11-07T05:07:33.684Z,2.20
2022-11-07T05:08:35.055Z,2.37
2022-11-07T05:09:36.723Z,2.60
2022-11-07T05:10:38.377Z,3.53
2022-11-07T05:11:39.943Z,2.50
2022-11-07T05:12:41.396Z,2.43
2022-11-07T05:13:42.867Z,2.70
2022-11-07T05:14:44.272Z,2.70
2022-11-07T05:15:45.774Z,2.80
2022-11-07T05:16:47.420Z,2.60
2022-11-07T05:17:49.111Z,2.33
2022-11-07T05:18:50.514Z,2.87
2022-11-07T05:19:51.966Z,2.50
2022-11-07T05:20:53.432Z,2.67
2022-11-07T05:22:13.676Z,2.13
2022-11-07T05:23:16.128Z,2.10
2022-11-07T05:24:17.885Z,2.40
2022-11-07T05:25:19.355Z,2.30
2022-11-07T05:26:20.972Z,2.40
2022-11-07T05:27:23.004Z,2.40
2022-11-07T05:28:38.162Z,2.47
2022-11-07T05:29:40.433Z,2.47
2022-11-07T05:30:43.167Z,3.00
2022-11-07T05:31:44.657Z,2.57
2022-11-07T05:32:46.249Z,2.13
2022-11-07T05:33:47.675Z,2.43
2022-11-07T05:34:49.489Z,2.40
2022-11-07T05:35:51.193Z,2.93
2022-11-07T05:36:52.613Z,2.60
2022-11-07T05:37:54.246Z,2.30
2022-11-07T05:38:55.633Z,2.97
2022-11-07T05:39:57.366Z,2.23
2022-11-07T05:41:03.670Z,2.33
2022-11-07T05:42:05.963Z,2.70
2022-11-07T05:43:10.507Z,2.47
2022-11-07T05:44:12.352Z,3.30
2022-11-07T05:45:13.791Z,2.87
2022-11-07T05:46:15.445Z,2.77
2022-11-07T05:47:17.103Z,2.97
2022-11-07T05:48:18.472Z,2.10
2022-11-07T05:49:19.991Z,2.50
2022-11-07T05:50:21.392Z,2.37
2022-11-07T05:51:22.781Z,3.37
2022-11-07T05:52:24.438Z,2.70
2022-11-07T05:53:28.079Z,2.73
2022-11-07T05:54:30.337Z,2.70
2022-11-07T05:55:32.171Z,2.67
2022-11-07T05:56:33.547Z,2.63
2022-11-07T05:57:34.966Z,2.60
2022-11-07T05:58:37.101Z,2.90
2022-11-07T05:59:38.474Z,2.87
2022-11-07T06:00:40.825Z,3.00
2022-11-07T06:01:42.500Z,2.60
2022-11-07T06:02:45.605Z,3.07
2022-11-07T06:03:47.067Z,2.50
2022-11-07T06:04:48.565Z,2.47
2022-11-07T06:05:49.959Z,2.70
2022-11-07T06:06:51.373Z,2.73
2022-11-07T06:07:52.797Z,2.60
2022-11-07T06:08:54.185Z,2.77
2022-11-07T06:09:56.833Z,2.97
2022-11-07T06:10:58.202Z,3.00
2022-11-07T06:11:59.607Z,2.87
2022-11-07T06:13:03.628Z,2.67
2022-11-07T06:14:05.087Z,2.77
2022-11-07T06:15:07.021Z,2.70
2022-11-07T06:16:09.100Z,2.70
2022-11-07T06:17:10.575Z,3.00
2022-11-07T06:18:17.775Z,3.00
2022-11-07T06:19:22.237Z,2.83
2022-11-07T06:20:23.795Z,2.60
2022-11-07T06:21:25.311Z,2.97
2022-11-07T06:22:26.987Z,2.50
2022-11-07T06:23:28.387Z,2.60
2022-11-07T06:24:30.068Z,2.73
2022-11-07T06:25:32.578Z,2.83
2022-11-07T06:26:34.129Z,2.70
2022-11-07T06:27:35.568Z,2.77
2022-11-07T06:28:36.958Z,2.90
2022-11-07T06:29:38.558Z,3.10
2022-11-07T06:30:40.559Z,2.97
2022-11-07T06:31:42.327Z,2.77
2022-11-07T06:32:45.787Z,2.90
2022-11-07T06:33:51.041Z,2.77
2022-11-07T06:34:52.698Z,2.57
2022-11-07T06:35:54.147Z,2.70
2022-11-07T06:37:02.648Z,3.70
2022-11-07T06:38:06.440Z,2.73
2022-11-07T06:39:07.988Z,3.10
2022-11-07T06:40:10.396Z,2.90
2022-11-07T06:41:14.441Z,2.80
2022-11-07T06:42:15.888Z,3.13
2022-11-07T06:43:19.822Z,2.80
2022-11-07T06:44:21.728Z,2.60
2022-11-07T06:45:23.211Z,3.00
2022-11-07T06:46:25.313Z,3.27
2022-11-07T06:47:27.139Z,2.97
2022-11-07T06:48:28.707Z,3.03
2022-11-07T06:49:30.193Z,2.77
2022-11-07T06:50:31.688Z,2.67
2022-11-07T06:51:33.288Z,2.83
2022-11-07T06:52:35.356Z,2.87
2022-11-07T06:53:37.775Z,2.50
2022-11-07T06:54:39.496Z,2.70
2022-11-07T06:55:41.111Z,2.60
2022-11-07T06:56:42.745Z,2.80
2022-11-07T06:57:44.632Z,2.40
2022-11-07T06:58:46.270Z,2.90
2022-11-07T06:59:51.701Z,2.93
2022-11-07T07:00:58.414Z,2.67
2022-11-07T07:01:59.932Z,2.87
2022-11-07T07:03:01.483Z,2.40
2022-11-07T07:04:02.946Z,3.00
2022-11-07T07:05:04.879Z,2.77
2022-11-07T07:06:10.006Z,3.10
2022-11-07T07:07:11.465Z,2.90
2022-11-07T07:08:14.045Z,2.67
2022-11-07T07:09:15.529Z,2.67
2022-11-07T07:10:17.057Z,2.70
2022-11-07T07:11:18.771Z,2.80
2022-11-07T07:12:20.387Z,2.90
2022-11-07T07:13:22.067Z,2.43
2022-11-07T07:14:23.534Z,2.90
2022-11-07T07:15:25.176Z,2.80
2022-11-07T07:16:26.643Z,2.40
2022-11-07T07:17:28.209Z,3.00
2022-11-07T07:18:30.707Z,2.53
2022-11-07T07:19:32.621Z,2.87
2022-11-07T07:20:34.350Z,2.47
2022-11-07T07:21:35.806Z,2.60
2022-11-07T07:22:37.424Z,2.70
2022-11-07T07:23:39.393Z,3.03
2022-11-07T07:24:40.890Z,2.77
2022-11-07T07:25:42.626Z,2.30
2022-11-07T07:26:44.208Z,2.50
2022-11-07T07:27:45.980Z,2.30
2022-11-07T07:28:49.114Z,2.70
2022-11-07T07:29:53.447Z,4.30
2022-11-07T07:31:06.967Z,2.60
2022-11-07T07:32:08.769Z,2.50
2022-11-07T07:33:11.243Z,2.83
2022-11-07T07:34:12.876Z,2.40
2022-11-07T07:35:14.499Z,2.50
2022-11-07T07:36:20.707Z,2.60
2022-11-07T07:37:22.772Z,2.80
2022-11-07T07:38:24.845Z,2.40
2022-11-07T07:39:27.931Z,2.43
2022-11-07T07:40:29.722Z,2.40
2022-11-07T07:41:33.919Z,2.60
2022-11-07T07:42:42.280Z,2.60
2022-11-07T07:43:43.997Z,2.80
2022-11-07T07:44:45.699Z,2.80
2022-11-07T07:45:47.291Z,2.37
2022-11-07T07:46:49.329Z,2.70
2022-11-07T07:47:53.011Z,2.57
2022-11-07T07:48:54.646Z,2.87
2022-11-07T07:49:56.269Z,2.77
2022-11-07T07:50:58.954Z,3.30
2022-11-07T07:52:00.533Z,2.27
2022-11-07T07:53:07.749Z,2.40
2022-11-07T07:54:13.822Z,2.60
2022-11-07T07:55:15.962Z,2.70
2022-11-07T07:56:17.670Z,2.50
2022-11-07T07:57:19.170Z,3.00
2022-11-07T07:58:20.529Z,3.00
2022-11-07T07:59:22.022Z,3.13
2022-11-07T08:00:23.789Z,2.83
2022-11-07T08:01:25.736Z,4.53
2022-11-07T08:02:28.147Z,2.40
2022-11-07T08:03:50.743Z,2.40
2022-11-07T08:04:51.228Z,2.50
2022-11-07T08:05:57.364Z,3.60
2022-11-07T08:06:59.391Z,2.63
2022-11-07T08:08:01.582Z,2.50
2022-11-07T08:09:03.995Z,2.53
2022-11-07T08:10:35.203Z,2.83
2022-11-07T08:11:28.098Z,2.70
2022-11-07T08:12:30.064Z,2.57
2022-11-07T08:13:31.684Z,2.43
2022-11-07T08:14:33.276Z,2.80
2022-11-07T08:15:35.116Z,2.60
2022-11-07T08:16:36.673Z,3.10
2022-11-07T08:17:38.788Z,2.93
2022-11-07T08:18:40.916Z,2.53
2022-11-07T08:19:42.384Z,2.80
2022-11-07T08:20:44.407Z,2.50
2022-11-07T08:21:46.340Z,2.37
2022-11-07T08:22:48.045Z,2.67
2022-11-07T08:23:53.426Z,2.63
2022-11-07T08:24:55.273Z,2.57
2022-11-07T08:25:58.641Z,2.93
2022-11-07T08:27:00.584Z,3.07
2022-11-07T08:28:02.780Z,2.87
2022-11-07T08:29:04.940Z,2.90
2022-11-07T08:30:10.667Z,2.60
2022-11-07T08:31:15.511Z,2.33
2022-11-07T08:32:17.177Z,3.00
2022-11-07T08:33:19.200Z,2.40
2022-11-07T08:34:21.108Z,2.60
2022-11-07T08:35:22.652Z,2.47
2022-11-07T08:36:24.469Z,2.60
2022-11-07T08:37:26.037Z,2.20
2022-11-07T08:38:29.608Z,2.63
2022-11-07T08:39:31.100Z,2.70
2022-11-07T08:40:32.641Z,2.73
2022-11-07T08:41:34.261Z,2.53
2022-11-07T08:42:35.808Z,2.87
2022-11-07T08:43:37.454Z,2.70
2022-11-07T08:44:39.987Z,2.77
2022-11-07T08:45:41.588Z,2.50
2022-11-07T08:46:43.284Z,2.63
2022-11-07T08:47:44.814Z,3.10
2022-11-07T08:48:46.349Z,3.20
2022-11-07T08:49:47.898Z,2.80
2022-11-07T08:50:53.838Z,2.70
2022-11-07T08:51:55.650Z,2.70
2022-11-07T08:53:02.687Z,2.60
2022-11-07T08:54:05.000Z,2.83
2022-11-07T08:55:07.730Z,2.73
2022-11-07T08:56:10.508Z,2.90
2022-11-07T08:57:12.148Z,2.77
2022-11-07T08:58:15.228Z,2.97
2022-11-07T08:59:16.871Z,2.70
2022-11-07T09:00:18.739Z,3.10
2022-11-07T09:01:20.374Z,3.00
2022-11-07T09:03:50.295Z,2.60
2022-11-07T09:04:54.766Z,2.80
2022-11-07T09:05:58.038Z,2.37
2022-11-07T09:06:59.726Z,2.80
2022-11-07T09:08:01.517Z,2.70
2022-11-07T09:09:03.622Z,2.70
2022-11-07T09:10:05.447Z,2.70
2022-11-07T09:11:07.360Z,2.50
2022-11-07T09:12:09.086Z,2.57
2022-11-07T09:13:11.222Z,2.63
2022-11-07T09:14:12.820Z,2.47
2022-11-07T09:15:14.596Z,2.57
2022-11-07T09:16:20.047Z,3.03
2022-11-07T09:17:21.811Z,2.53
2022-11-07T09:18:23.670Z,2.77
2022-11-07T09:19:25.319Z,3.10
2022-11-07T09:20:26.835Z,2.60
2022-11-07T09:21:28.472Z,2.40
2022-11-07T09:22:35.025Z,2.37
2022-11-07T09:23:37.531Z,3.00
2022-11-07T09:24:39.755Z,2.90
2022-11-07T09:25:41.353Z,3.00
2022-11-07T09:26:43.760Z,2.70
2022-11-07T09:27:47.282Z,2.63
2022-11-07T09:28:52.306Z,2.50
2022-11-07T09:29:55.632Z,2.73
2022-11-07T09:30:58.731Z,2.40
2022-11-07T09:32:08.263Z,2.80
2022-11-07T09:33:23.220Z,2.73
2022-11-07T09:34:25.874Z,2.87
2022-11-07T09:35:27.679Z,3.47
2022-11-07T09:36:29.467Z,4.03
2022-11-07T09:37:31.035Z,2.63
2022-11-07T09:38:33.109Z,2.50
2022-11-07T09:39:34.586Z,3.07
2022-11-07T09:41:16.273Z,3.00
2022-11-07T09:42:32.819Z,2.53
2022-11-07T09:43:55.333Z,3.30
2022-11-07T09:44:59.247Z,2.60
2022-11-07T09:46:19.913Z,2.90
2022-11-07T09:47:37.713Z,2.77
2022-11-07T09:48:44.866Z,2.67
2022-11-07T09:49:59.518Z,2.50
2022-11-07T09:51:01.214Z,2.93
2022-11-07T09:52:06.094Z,2.70
2022-11-07T09:53:25.913Z,3.00
2022-11-07T09:54:33.403Z,2.57
2022-11-07T09:55:51.609Z,2.70
2022-11-07T09:56:57.454Z,2.87
2022-11-07T09:58:03.065Z,2.90
2022-11-07T09:59:13.981Z,2.93
2022-11-07T10:00:18.779Z,3.00
2022-11-07T10:01:22.153Z,2.80
2022-11-07T10:02:30.549Z,2.37
2022-11-07T10:03:35.768Z,2.90
2022-11-07T10:04:37.366Z,2.93
2022-11-07T10:06:24.088Z,2.87
2022-11-07T10:07:40.154Z,2.57
2022-11-07T10:08:46.263Z,2.60
2022-11-07T10:09:55.179Z,2.70
2022-11-07T10:11:11.318Z,2.50
2022-11-07T10:13:06.722Z,2.70
2022-11-07T10:14:08.211Z,2.90
2022-11-07T10:15:26.786Z,2.73
2022-11-07T10:16:56.667Z,3.53
2022-11-07T10:18:19.657Z,2.53
2022-11-07T10:19:51.102Z,2.73
2022-11-07T10:21:37.033Z,2.73
2022-11-07T10:23:10.244Z,2.47
2022-11-07T10:24:21.296Z,2.57
2022-11-07T10:25:39.512Z,2.73
2022-11-07T10:26:44.863Z,3.03
2022-11-07T10:27:52.299Z,2.60
2022-11-07T10:28:58.044Z,2.93
2022-11-07T10:30:00.816Z,3.23
2022-11-07T10:31:07.604Z,2.70
2022-11-07T10:32:34.728Z,2.80
2022-11-07T10:33:48.551Z,2.50
2022-11-07T10:34:58.079Z,2.47
2022-11-07T10:36:07.835Z,2.60
2022-11-07T10:37:09.772Z,2.60
2022-11-07T10:38:32.308Z,2.80
2022-11-07T10:39:34.061Z,2.67
2022-11-07T10:40:41.651Z,2.70
2022-11-07T10:42:08.488Z,2.80
2022-11-07T10:43:20.614Z,2.97
2022-11-07T10:44:27.212Z,2.60
2022-11-07T10:45:29.522Z,2.50
2022-11-07T10:46:46.658Z,3.33
2022-11-07T10:48:02.940Z,2.80
2022-11-07T10:49:18.173Z,3.17
2022-11-07T10:50:22.357Z,2.60
2022-11-07T10:51:41.003Z,2.80
2022-11-07T10:52:51.690Z,3.80
2022-11-07T10:53:53.720Z,3.10
2022-11-07T10:55:15.461Z,2.53
2022-11-07T10:56:19.810Z,2.60
2022-11-07T10:57:23.666Z,2.73
2022-11-07T10:58:29.961Z,3.10
2022-11-07T10:59:36.414Z,3.40
2022-11-07T11:00:41.500Z,3.50
2022-11-07T11:01:55.462Z,3.10
2022-11-07T11:02:57.327Z,3.03
2022-11-07T11:03:59.401Z,2.70
2022-11-07T11:05:03.243Z,2.90
2022-11-07T11:06:11.061Z,2.60
2022-11-07T11:07:13.510Z,2.80
2022-11-07T11:08:21.998Z,2.80
2022-11-07T11:09:28.012Z,2.70
2022-11-07T11:10:31.428Z,2.43
2022-11-07T11:11:34.699Z,2.70
2022-11-07T11:12:37.769Z,2.43
2022-11-07T11:13:39.312Z,2.83
2022-11-07T11:14:41.619Z,3.10
2022-11-07T11:15:45.720Z,2.40
2022-11-07T11:16:54.440Z,2.70
2022-11-07T11:18:02.523Z,2.83
2022-11-07T11:19:06.391Z,2.70
2022-11-07T11:20:23.829Z,2.60
2022-11-07T11:21:25.860Z,2.97
2022-11-07T11:22:29.366Z,3.10
2022-11-07T11:23:35.469Z,2.50
2022-11-07T11:24:40.332Z,2.50
2022-11-07T11:25:50.124Z,2.50
2022-11-07T11:26:53.564Z,4.10
2022-11-07T11:28:08.246Z,3.63
2022-11-07T11:29:39.171Z,2.80
2022-11-07T11:30:42.094Z,2.87
2022-11-07T11:31:52.905Z,2.60
2022-11-07T11:33:12.377Z,2.77
2022-11-07T11:34:21.993Z,3.00
2022-11-07T11:35:41.330Z,2.47
2022-11-07T11:36:51.843Z,2.60
2022-11-07T11:38:08.517Z,2.57
2022-11-07T11:39:41.032Z,2.60
2022-11-07T11:40:49.067Z,2.20
2022-11-07T11:41:56.884Z,3.00
2022-11-07T11:43:05.145Z,2.77
2022-11-07T11:44:39.207Z,2.27
2022-11-07T11:45:40.723Z,2.80
2022-11-07T11:46:51.147Z,2.73
2022-11-07T11:48:10.240Z,2.40
2022-11-07T11:49:35.496Z,2.60
2022-11-07T11:50:51.104Z,2.83
2022-11-07T11:51:54.837Z,2.70
2022-11-07T11:52:57.081Z,2.67
2022-11-07T11:53:58.718Z,3.00
2022-11-07T11:55:01.588Z,2.40
2022-11-07T11:56:03.310Z,2.83
2022-11-07T11:57:14.736Z,2.87
2022-11-07T11:58:33.751Z,2.83
2022-11-07T11:59:38.523Z,2.57
2022-11-07T12:00:53.023Z,2.53
2022-11-07T12:02:17.286Z,2.80
2022-11-07T12:03:44.693Z,2.57
2022-11-07T12:05:00.882Z,2.70
2022-11-07T12:06:16.929Z,2.70
2022-11-07T12:07:33.677Z,2.50
2022-11-07T12:09:06.259Z,2.57
2022-11-07T12:10:28.375Z,2.47
2022-11-07T12:11:38.400Z,2.65
2022-11-07T12:13:07.443Z,2.60
2022-11-07T12:14:26.849Z,2.57
2022-11-07T12:16:02.341Z,2.90
2022-11-07T12:17:14.347Z,2.67
2022-11-07T12:18:33.858Z,2.60
2022-11-07T12:19:53.198Z,3.73
2022-11-07T12:21:02.611Z,3.07
2022-11-07T12:22:36.018Z,2.87
2022-11-07T12:23:46.301Z,2.77
2022-11-07T12:24:52.897Z,2.40
2022-11-07T12:26:02.350Z,2.57
2022-11-07T12:27:28.677Z,2.73
2022-11-07T12:28:57.591Z,3.47
2022-11-07T12:30:29.127Z,2.30
2022-11-07T12:32:06.834Z,2.67
2022-11-07T12:33:31.641Z,2.83
2022-11-07T12:34:42.145Z,2.60
2022-11-07T12:35:48.529Z,2.40
2022-11-07T12:37:26.273Z,2.93
2022-11-07T12:38:58.618Z,3.27
2022-11-07T12:40:25.543Z,2.97
2022-11-07T12:41:39.101Z,2.93
2022-11-07T12:43:04.945Z,2.87
2022-11-07T12:44:15.068Z,2.47
2022-11-07T12:46:01.860Z,2.77
2022-11-07T12:47:13.704Z,2.90
2022-11-07T12:48:35.186Z,2.60
2022-11-07T12:49:51.221Z,2.70
2022-11-07T12:51:16.377Z,2.90
2022-11-07T12:52:29.931Z,3.17
2022-11-07T12:53:49.964Z,3.00
2022-11-07T12:54:58.240Z,2.70
2022-11-07T12:56:26.648Z,2.60
2022-11-07T12:57:32.198Z,2.60
2022-11-07T12:58:35.687Z,2.93
2022-11-07T12:59:40.265Z,3.00
2022-11-07T13:00:42.748Z,2.40
2022-11-07T13:01:51.056Z,2.80
2022-11-07T13:03:10.570Z,2.80
2022-11-07T13:04:27.912Z,2.60
2022-11-07T13:06:01.371Z,2.70
2022-11-07T13:07:33.943Z,4.20
2022-11-07T13:08:47.380Z,2.50
2022-11-07T13:10:35.032Z,2.87
2022-11-07T13:11:54.279Z,2.73
2022-11-07T13:13:21.451Z,2.90
2022-11-07T13:14:33.196Z,2.73
2022-11-07T13:16:00.796Z,2.60
2022-11-07T13:17:08.701Z,2.83
2022-11-07T13:18:27.816Z,2.70
2022-11-07T13:19:37.926Z,3.40
2022-11-07T13:20:39.715Z,2.63
2022-11-07T13:21:43.198Z,2.90
2022-11-07T13:22:51.571Z,2.57
2022-11-07T13:23:53.736Z,3.00
2022-11-07T13:25:08.399Z,2.57
2022-11-07T13:26:44.660Z,2.70
2022-11-07T13:27:37.162Z,2.50
2022-11-07T13:29:00.149Z,2.50
2022-11-07T13:30:16.816Z,3.43
2022-11-07T13:31:34.853Z,2.80
2022-11-07T13:32:44.092Z,2.50
2022-11-07T13:33:45.719Z,2.53
2022-11-07T13:34:59.502Z,2.90
2022-11-07T13:36:27.461Z,3.10
2022-11-07T13:37:43.505Z,2.60
2022-11-07T13:38:52.810Z,2.50
2022-11-07T13:40:01.026Z,2.37
2022-11-07T13:41:05.035Z,2.57
2022-11-07T13:42:06.837Z,2.67
2022-11-07T13:43:27.832Z,2.70
2022-11-07T13:44:35.683Z,2.80
2022-11-07T13:45:48.226Z,3.00
2022-11-07T13:46:53.533Z,2.60
2022-11-07T13:47:59.558Z,2.70
2022-11-07T13:49:14.899Z,2.77
2022-11-07T13:50:24.035Z,2.53
2022-11-07T13:51:25.603Z,3.07
2022-11-07T13:52:46.201Z,2.30
2022-11-07T13:54:18.743Z,2.57
2022-11-07T13:55:25.396Z,2.77
2022-11-07T13:56:53.687Z,2.53
2022-11-07T13:58:04.330Z,2.70
2022-11-07T13:59:20.815Z,2.40
2022-11-07T14:00:23.401Z,2.40
2022-11-07T14:01:25.088Z,2.47
2022-11-07T14:02:31.247Z,2.30
2022-11-07T14:03:33.237Z,2.40
2022-11-07T14:04:40.571Z,3.00
2022-11-07T14:05:57.215Z,2.70
2022-11-07T14:07:01.205Z,2.87
2022-11-07T14:08:04.836Z,2.97
2022-11-07T14:09:06.610Z,2.67
2022-11-07T14:10:41.831Z,3.27
2022-11-07T14:11:43.888Z,2.90
2022-11-07T14:12:46.272Z,3.00
2022-11-07T14:13:53.692Z,2.83
2022-11-07T14:14:57.919Z,2.70
2022-11-07T14:16:02.570Z,2.60
2022-11-07T14:17:04.321Z,2.77
2022-11-07T14:18:06.769Z,2.87
2022-11-07T14:19:15.557Z,2.70
2022-11-07T14:20:19.759Z,2.70
2022-11-07T14:21:26.801Z,2.93
2022-11-07T14:22:28.276Z,2.80
2022-11-07T14:23:34.372Z,3.90
2022-11-07T14:24:36.187Z,2.93
2022-11-07T14:25:37.773Z,2.40
2022-11-07T14:26:43.687Z,2.70
2022-11-07T14:27:46.857Z,2.70
2022-11-07T14:28:49.496Z,2.93
2022-11-07T14:30:00.395Z,2.73
2022-11-07T14:31:23.141Z,2.70
2022-11-07T14:32:30.687Z,2.73
2022-11-07T14:33:33.895Z,2.83
2022-11-07T14:34:43.430Z,2.60
2022-11-07T14:35:48.869Z,2.97
2022-11-07T14:36:58.892Z,3.00
2022-11-07T14:38:09.921Z,2.50
2022-11-07T14:39:15.729Z,2.80
2022-11-07T14:40:18.724Z,2.50
2022-11-07T14:41:22.405Z,2.77
2022-11-07T14:42:24.975Z,2.70